sensor_id;sensor_type;location;lat;lon;timestamp;P1;durP1;ratioP1;P2;durP2;ratioP2
49842;SDS011;55559;48.898;9.184;2023-05-15T00:00:02;5.78;;;2.70;;
49842;SDS011;55559;48.898;9.184;2023-05-15T00:02:37;5.80;;;2.70;;
49842;SDS011;55559;48.898;9.184;2023-05-15T00:05:06;7.32;;;2.92;;
49842;SDS011;55559;48.898;9.184;2023-05-15T00:07:34;3.38;;;2.72;;
49842;SDS011;55559;48.898;9.184;2023-05-15T00:10:02;3.97;;;2.95;;
49842;SDS011;55559;48.898;9.184;2023-05-15T00:12:31;6.72;;;2.90;;
49842;SDS011;55559;48.898;9.184;2023-05-15T00:14:59;3.90;;;2.70;;
49842;SDS011;55559;48.898;9.184;2023-05-15T00:17:26;8.57;;;3.03;;
49842;SDS011;55559;48.898;9.184;2023-05-15T00:19:54;4.28;;;2.28;;
49842;SDS011;55559;48.898;9.184;2023-05-15T00:22:23;3.20;;;2.60;;
49842;SDS011;55559;48.898;9.184;2023-05-15T00:24:51;3.00;;;2.42;;
49842;SDS011;55559;48.898;9.184;2023-05-15T00:27:19;3.17;;;2.35;;
49842;SDS011;55559;48.898;9.184;2023-05-15T00:29:48;5.05;;;2.55;;
49842;SDS011;55559;48.898;9.184;2023-05-15T00:32:15;7.00;;;2.00;;
49842;SDS011;55559;48.898;9.184;2023-05-15T00:34:43;2.03;;;1.83;;
49842;SDS011;55559;48.898;9.184;2023-05-15T00:37:10;2.25;;;1.55;;
49842;SDS011;55559;48.898;9.184;2023-05-15T00:39:38;5.00;;;1.80;;
49842;SDS011;55559;48.898;9.184;2023-05-15T00:42:05;2.03;;;1.65;;
49842;SDS011;55559;48.898;9.184;2023-05-15T00:44:34;2.50;;;1.42;;
49842;SDS011;55559;48.898;9.184;2023-05-15T00:47:06;2.20;;;1.65;;
49842;SDS011;55559;48.898;9.184;2023-05-15T00:49:36;1.90;;;1.60;;
49842;SDS011;55559;48.898;9.184;2023-05-15T00:52:04;3.40;;;2.22;;
49842;SDS011;55559;48.898;9.184;2023-05-15T00:54:33;6.13;;;1.65;;
49842;SDS011;55559;48.898;9.184;2023-05-15T00:57:02;3.60;;;1.83;;
49842;SDS011;55559;48.898;9.184;2023-05-15T00:59:32;2.38;;;1.83;;
49842;SDS011;55559;48.898;9.184;2023-05-15T01:02:00;3.05;;;1.63;;
49842;SDS011;55559;48.898;9.184;2023-05-15T01:04:30;6.80;;;2.30;;
49842;SDS011;55559;48.898;9.184;2023-05-15T01:06:57;4.60;;;2.80;;
49842;SDS011;55559;48.898;9.184;2023-05-15T01:09:26;7.68;;;3.88;;
49842;SDS011;55559;48.898;9.184;2023-05-15T01:11:57;6.80;;;3.10;;
49842;SDS011;55559;48.898;9.184;2023-05-15T01:14:26;4.03;;;3.13;;
49842;SDS011;55559;48.898;9.184;2023-05-15T01:16:53;5.30;;;3.30;;
49842;SDS011;55559;48.898;9.184;2023-05-15T01:19:21;2.80;;;2.60;;
49842;SDS011;55559;48.898;9.184;2023-05-15T01:25:07;8.07;;;3.15;;
49842;SDS011;55559;48.898;9.184;2023-05-15T01:28:05;5.07;;;3.15;;
49842;SDS011;55559;48.898;9.184;2023-05-15T01:30:38;5.95;;;3.00;;
49842;SDS011;55559;48.898;9.184;2023-05-15T01:33:11;5.88;;;3.22;;
49842;SDS011;55559;48.898;9.184;2023-05-15T01:35:44;6.55;;;3.15;;
49842;SDS011;55559;48.898;9.184;2023-05-15T01:38:18;4.30;;;2.80;;
49842;SDS011;55559;48.898;9.184;2023-05-15T01:40:55;5.05;;;2.80;;
49842;SDS011;55559;48.898;9.184;2023-05-15T01:43:29;2.92;;;2.65;;
49842;SDS011;55559;48.898;9.184;2023-05-15T01:46:00;3.15;;;2.83;;
49842;SDS011;55559;48.898;9.184;2023-05-15T01:48:29;3.25;;;2.90;;
49842;SDS011;55559;48.898;9.184;2023-05-15T01:51:01;5.15;;;3.25;;
49842;SDS011;55559;48.898;9.184;2023-05-15T01:53:33;7.03;;;3.75;;
49842;SDS011;55559;48.898;9.184;2023-05-15T01:56:01;4.70;;;3.60;;
49842;SDS011;55559;48.898;9.184;2023-05-15T01:58:34;5.88;;;2.72;;
49842;SDS011;55559;48.898;9.184;2023-05-15T02:01:05;3.45;;;2.97;;
49842;SDS011;55559;48.898;9.184;2023-05-15T02:03:35;3.45;;;2.60;;
49842;SDS011;55559;48.898;9.184;2023-05-15T02:06:03;8.13;;;3.03;;
49842;SDS011;55559;48.898;9.184;2023-05-15T02:08:32;9.45;;;3.05;;
49842;SDS011;55559;48.898;9.184;2023-05-15T02:11:02;3.67;;;2.03;;
49842;SDS011;55559;48.898;9.184;2023-05-15T02:13:30;3.95;;;2.80;;
49842;SDS011;55559;48.898;9.184;2023-05-15T02:16:00;4.75;;;3.20;;
49842;SDS011;55559;48.898;9.184;2023-05-15T02:18:27;3.33;;;2.92;;
49842;SDS011;55559;48.898;9.184;2023-05-15T02:20:56;3.85;;;2.85;;
49842;SDS011;55559;48.898;9.184;2023-05-15T02:23:25;7.53;;;3.10;;
49842;SDS011;55559;48.898;9.184;2023-05-15T02:25:58;4.63;;;3.35;;
49842;SDS011;55559;48.898;9.184;2023-05-15T02:28:40;4.57;;;3.28;;
49842;SDS011;55559;48.898;9.184;2023-05-15T02:31:16;3.60;;;2.60;;
49842;SDS011;55559;48.898;9.184;2023-05-15T02:33:54;8.20;;;2.92;;
49842;SDS011;55559;48.898;9.184;2023-05-15T02:36:26;3.20;;;2.70;;
49842;SDS011;55559;48.898;9.184;2023-05-15T02:38:58;9.35;;;2.83;;
49842;SDS011;55559;48.898;9.184;2023-05-15T02:41:26;3.42;;;3.13;;
49842;SDS011;55559;48.898;9.184;2023-05-15T02:43:54;3.17;;;2.88;;
49842;SDS011;55559;48.898;9.184;2023-05-15T02:46:25;3.13;;;2.83;;
49842;SDS011;55559;48.898;9.184;2023-05-15T02:48:54;4.03;;;3.58;;
49842;SDS011;55559;48.898;9.184;2023-05-15T02:51:21;6.30;;;2.78;;
49842;SDS011;55559;48.898;9.184;2023-05-15T02:53:49;3.60;;;3.30;;
49842;SDS011;55559;48.898;9.184;2023-05-15T02:56:18;3.50;;;3.13;;
49842;SDS011;55559;48.898;9.184;2023-05-15T02:58:45;3.65;;;2.53;;
49842;SDS011;55559;48.898;9.184;2023-05-15T03:01:14;3.90;;;2.95;;
49842;SDS011;55559;48.898;9.184;2023-05-15T03:03:43;3.53;;;3.00;;
49842;SDS011;55559;48.898;9.184;2023-05-15T03:06:11;3.88;;;3.33;;
49842;SDS011;55559;48.898;9.184;2023-05-15T03:08:38;4.25;;;2.60;;
49842;SDS011;55559;48.898;9.184;2023-05-15T03:11:06;3.22;;;2.63;;
49842;SDS011;55559;48.898;9.184;2023-05-15T03:13:33;3.55;;;2.90;;
49842;SDS011;55559;48.898;9.184;2023-05-15T03:16:01;6.80;;;3.47;;
49842;SDS011;55559;48.898;9.184;2023-05-15T03:18:28;4.32;;;3.30;;
49842;SDS011;55559;48.898;9.184;2023-05-15T03:20:57;2.83;;;2.47;;
49842;SDS011;55559;48.898;9.184;2023-05-15T03:23:25;3.67;;;2.67;;
49842;SDS011;55559;48.898;9.184;2023-05-15T03:25:52;4.80;;;2.70;;
49842;SDS011;55559;48.898;9.184;2023-05-15T03:28:19;5.43;;;2.50;;
49842;SDS011;55559;48.898;9.184;2023-05-15T03:30:47;4.65;;;2.60;;
49842;SDS011;55559;48.898;9.184;2023-05-15T03:33:14;4.00;;;2.90;;
49842;SDS011;55559;48.898;9.184;2023-05-15T03:35:42;4.85;;;2.90;;
49842;SDS011;55559;48.898;9.184;2023-05-15T03:38:10;3.53;;;3.00;;
49842;SDS011;55559;48.898;9.184;2023-05-15T03:40:38;5.20;;;3.75;;
49842;SDS011;55559;48.898;9.184;2023-05-15T03:43:06;5.85;;;2.70;;
49842;SDS011;55559;48.898;9.184;2023-05-15T03:45:33;7.55;;;3.70;;
49842;SDS011;55559;48.898;9.184;2023-05-15T03:48:02;8.32;;;3.13;;
49842;SDS011;55559;48.898;9.184;2023-05-15T03:50:29;4.32;;;2.80;;
49842;SDS011;55559;48.898;9.184;2023-05-15T03:52:58;3.97;;;3.15;;
49842;SDS011;55559;48.898;9.184;2023-05-15T03:55:27;3.90;;;2.70;;
49842;SDS011;55559;48.898;9.184;2023-05-15T03:57:54;5.68;;;3.70;;
49842;SDS011;55559;48.898;9.184;2023-05-15T04:00:22;5.30;;;3.03;;
49842;SDS011;55559;48.898;9.184;2023-05-15T04:02:50;4.10;;;2.72;;
49842;SDS011;55559;48.898;9.184;2023-05-15T04:05:18;3.67;;;3.33;;
49842;SDS011;55559;48.898;9.184;2023-05-15T04:07:46;3.92;;;3.63;;
49842;SDS011;55559;48.898;9.184;2023-05-15T04:10:13;5.53;;;3.50;;
49842;SDS011;55559;48.898;9.184;2023-05-15T04:12:42;3.90;;;3.58;;
49842;SDS011;55559;48.898;9.184;2023-05-15T04:15:13;5.60;;;3.40;;
49842;SDS011;55559;48.898;9.184;2023-05-15T04:17:45;3.83;;;3.45;;
49842;SDS011;55559;48.898;9.184;2023-05-15T04:20:13;6.53;;;3.20;;
49842;SDS011;55559;48.898;9.184;2023-05-15T04:22:42;5.60;;;3.63;;
49842;SDS011;55559;48.898;9.184;2023-05-15T04:25:11;3.33;;;3.03;;
49842;SDS011;55559;48.898;9.184;2023-05-15T04:27:39;4.97;;;3.75;;
49842;SDS011;55559;48.898;9.184;2023-05-15T04:30:10;8.45;;;3.80;;
49842;SDS011;55559;48.898;9.184;2023-05-15T04:32:38;6.75;;;2.95;;
49842;SDS011;55559;48.898;9.184;2023-05-15T04:35:07;7.00;;;3.50;;
49842;SDS011;55559;48.898;9.184;2023-05-15T04:37:37;3.65;;;3.17;;
49842;SDS011;55559;48.898;9.184;2023-05-15T04:40:05;4.57;;;3.35;;
49842;SDS011;55559;48.898;9.184;2023-05-15T04:45:40;3.35;;;2.95;;
49842;SDS011;55559;48.898;9.184;2023-05-15T04:48:07;7.30;;;3.53;;
49842;SDS011;55559;48.898;9.184;2023-05-15T04:50:34;8.10;;;3.90;;
49842;SDS011;55559;48.898;9.184;2023-05-15T04:53:02;3.53;;;3.22;;
49842;SDS011;55559;48.898;9.184;2023-05-15T04:55:29;3.45;;;3.15;;
49842;SDS011;55559;48.898;9.184;2023-05-15T04:57:57;5.78;;;3.22;;
49842;SDS011;55559;48.898;9.184;2023-05-15T05:00:24;5.80;;;4.00;;
49842;SDS011;55559;48.898;9.184;2023-05-15T05:02:54;4.70;;;3.85;;
49842;SDS011;55559;48.898;9.184;2023-05-15T05:05:21;4.57;;;4.05;;
49842;SDS011;55559;48.898;9.184;2023-05-15T05:07:48;4.13;;;3.72;;
49842;SDS011;55559;48.898;9.184;2023-05-15T05:10:16;4.07;;;3.35;;
49842;SDS011;55559;48.898;9.184;2023-05-15T05:12:44;5.70;;;3.83;;
49842;SDS011;55559;48.898;9.184;2023-05-15T05:15:11;8.75;;;4.30;;
49842;SDS011;55559;48.898;9.184;2023-05-15T05:17:39;8.68;;;4.60;;
49842;SDS011;55559;48.898;9.184;2023-05-15T05:20:10;6.78;;;4.15;;
49842;SDS011;55559;48.898;9.184;2023-05-15T05:22:38;6.03;;;4.20;;
49842;SDS011;55559;48.898;9.184;2023-05-15T05:25:07;6.20;;;4.63;;
49842;SDS011;55559;48.898;9.184;2023-05-15T05:27:34;5.60;;;4.45;;
49842;SDS011;55559;48.898;9.184;2023-05-15T05:30:02;6.45;;;4.32;;
49842;SDS011;55559;48.898;9.184;2023-05-15T05:32:30;6.15;;;5.07;;
49842;SDS011;55559;48.898;9.184;2023-05-15T05:34:57;10.07;;;4.35;;
49842;SDS011;55559;48.898;9.184;2023-05-15T05:37:26;5.30;;;4.68;;
49842;SDS011;55559;48.898;9.184;2023-05-15T05:39:54;5.22;;;4.60;;
49842;SDS011;55559;48.898;9.184;2023-05-15T05:42:21;7.55;;;4.78;;
49842;SDS011;55559;48.898;9.184;2023-05-15T05:44:49;5.00;;;4.50;;
49842;SDS011;55559;48.898;9.184;2023-05-15T05:47:16;6.03;;;5.43;;
49842;SDS011;55559;48.898;9.184;2023-05-15T05:49:44;5.68;;;4.93;;
49842;SDS011;55559;48.898;9.184;2023-05-15T05:52:12;5.80;;;5.20;;
49842;SDS011;55559;48.898;9.184;2023-05-15T05:54:41;7.25;;;4.15;;
49842;SDS011;55559;48.898;9.184;2023-05-15T05:57:10;8.93;;;4.65;;
49842;SDS011;55559;48.898;9.184;2023-05-15T05:59:38;8.32;;;4.13;;
49842;SDS011;55559;48.898;9.184;2023-05-15T06:02:06;5.90;;;4.45;;
49842;SDS011;55559;48.898;9.184;2023-05-15T06:04:34;5.70;;;3.63;;
49842;SDS011;55559;48.898;9.184;2023-05-15T06:07:01;8.25;;;4.43;;
49842;SDS011;55559;48.898;9.184;2023-05-15T06:09:29;4.28;;;3.88;;
49842;SDS011;55559;48.898;9.184;2023-05-15T06:11:58;7.68;;;3.60;;
49842;SDS011;55559;48.898;9.184;2023-05-15T06:14:29;6.10;;;4.00;;
49842;SDS011;55559;48.898;9.184;2023-05-15T06:16:56;4.05;;;3.35;;
49842;SDS011;55559;48.898;9.184;2023-05-15T06:19:24;8.80;;;4.03;;
49842;SDS011;55559;48.898;9.184;2023-05-15T06:21:51;6.50;;;2.97;;
49842;SDS011;55559;48.898;9.184;2023-05-15T06:24:19;3.88;;;2.70;;
49842;SDS011;55559;48.898;9.184;2023-05-15T06:26:46;4.03;;;3.00;;
49842;SDS011;55559;48.898;9.184;2023-05-15T06:29:15;5.40;;;2.75;;
49842;SDS011;55559;48.898;9.184;2023-05-15T06:31:43;8.38;;;2.63;;
49842;SDS011;55559;48.898;9.184;2023-05-15T06:34:10;3.40;;;2.50;;
49842;SDS011;55559;48.898;9.184;2023-05-15T06:36:38;4.82;;;2.40;;
49842;SDS011;55559;48.898;9.184;2023-05-15T06:39:05;4.00;;;1.98;;
49842;SDS011;55559;48.898;9.184;2023-05-15T06:41:35;4.70;;;2.85;;
49842;SDS011;55559;48.898;9.184;2023-05-15T06:44:03;6.90;;;1.98;;
49842;SDS011;55559;48.898;9.184;2023-05-15T06:46:32;6.07;;;2.13;;
49842;SDS011;55559;48.898;9.184;2023-05-15T06:49:00;5.93;;;2.38;;
49842;SDS011;55559;48.898;9.184;2023-05-15T06:51:27;2.10;;;1.83;;
49842;SDS011;55559;48.898;9.184;2023-05-15T06:53:55;6.97;;;2.30;;
49842;SDS011;55559;48.898;9.184;2023-05-15T06:56:22;1.90;;;1.58;;
49842;SDS011;55559;48.898;9.184;2023-05-15T06:58:50;3.30;;;2.35;;
49842;SDS011;55559;48.898;9.184;2023-05-15T07:01:17;6.07;;;1.77;;
49842;SDS011;55559;48.898;9.184;2023-05-15T07:03:46;2.65;;;2.30;;
49842;SDS011;55559;48.898;9.184;2023-05-15T07:06:14;7.47;;;1.92;;
49842;SDS011;55559;48.898;9.184;2023-05-15T07:08:41;3.45;;;2.33;;
49842;SDS011;55559;48.898;9.184;2023-05-15T07:11:08;5.30;;;2.00;;
49842;SDS011;55559;48.898;9.184;2023-05-15T07:13:36;2.75;;;1.63;;
49842;SDS011;55559;48.898;9.184;2023-05-15T07:16:04;2.17;;;1.70;;
49842;SDS011;55559;48.898;9.184;2023-05-15T07:18:31;2.17;;;1.40;;
49842;SDS011;55559;48.898;9.184;2023-05-15T07:21:00;3.95;;;1.27;;
49842;SDS011;55559;48.898;9.184;2023-05-15T07:23:28;2.65;;;1.50;;
49842;SDS011;55559;48.898;9.184;2023-05-15T07:25:55;6.07;;;1.90;;
49842;SDS011;55559;48.898;9.184;2023-05-15T07:28:23;3.17;;;1.70;;
49842;SDS011;55559;48.898;9.184;2023-05-15T07:30:50;3.78;;;1.63;;
49842;SDS011;55559;48.898;9.184;2023-05-15T07:33:18;2.83;;;1.35;;
49842;SDS011;55559;48.898;9.184;2023-05-15T07:35:45;2.35;;;1.92;;
49842;SDS011;55559;48.898;9.184;2023-05-15T07:38:14;3.35;;;1.55;;
49842;SDS011;55559;48.898;9.184;2023-05-15T07:40:42;3.03;;;1.65;;
49842;SDS011;55559;48.898;9.184;2023-05-15T07:43:10;2.42;;;1.38;;
49842;SDS011;55559;48.898;9.184;2023-05-15T07:45:37;1.50;;;1.23;;
49842;SDS011;55559;48.898;9.184;2023-05-15T07:48:14;4.50;;;1.58;;
49842;SDS011;55559;48.898;9.184;2023-05-15T07:50:43;4.32;;;1.10;;
49842;SDS011;55559;48.898;9.184;2023-05-15T07:53:11;5.43;;;1.10;;
49842;SDS011;55559;48.898;9.184;2023-05-15T07:55:42;2.55;;;0.88;;
49842;SDS011;55559;48.898;9.184;2023-05-15T07:58:10;1.40;;;0.75;;
49842;SDS011;55559;48.898;9.184;2023-05-15T08:00:38;2.33;;;1.02;;
49842;SDS011;55559;48.898;9.184;2023-05-15T08:03:05;1.70;;;1.10;;
49842;SDS011;55559;48.898;9.184;2023-05-15T08:05:32;3.45;;;0.90;;
49842;SDS011;55559;48.898;9.184;2023-05-15T08:08:00;2.40;;;1.20;;
49842;SDS011;55559;48.898;9.184;2023-05-15T08:10:28;2.78;;;0.93;;
49842;SDS011;55559;48.898;9.184;2023-05-15T08:12:56;5.30;;;1.00;;
49842;SDS011;55559;48.898;9.184;2023-05-15T08:15:24;2.95;;;0.90;;
49842;SDS011;55559;48.898;9.184;2023-05-15T08:17:51;4.20;;;1.00;;
49842;SDS011;55559;48.898;9.184;2023-05-15T08:20:19;1.38;;;0.80;;
49842;SDS011;55559;48.898;9.184;2023-05-15T08:22:47;3.55;;;0.93;;
49842;SDS011;55559;48.898;9.184;2023-05-15T08:25:14;7.90;;;0.90;;
49842;SDS011;55559;48.898;9.184;2023-05-15T08:27:41;2.45;;;0.80;;
49842;SDS011;55559;48.898;9.184;2023-05-15T08:30:11;5.43;;;1.00;;
49842;SDS011;55559;48.898;9.184;2023-05-15T08:32:40;2.30;;;0.80;;
49842;SDS011;55559;48.898;9.184;2023-05-15T08:35:08;1.90;;;0.88;;
49842;SDS011;55559;48.898;9.184;2023-05-15T08:37:36;2.40;;;0.70;;
49842;SDS011;55559;48.898;9.184;2023-05-15T08:40:04;2.40;;;0.95;;
49842;SDS011;55559;48.898;9.184;2023-05-15T08:42:38;1.75;;;0.70;;
49842;SDS011;55559;48.898;9.184;2023-05-15T08:45:12;1.95;;;1.00;;
49842;SDS011;55559;48.898;9.184;2023-05-15T08:47:40;2.92;;;1.08;;
49842;SDS011;55559;48.898;9.184;2023-05-15T08:50:09;2.05;;;1.10;;
49842;SDS011;55559;48.898;9.184;2023-05-15T08:52:39;2.28;;;0.90;;
49842;SDS011;55559;48.898;9.184;2023-05-15T08:55:08;3.60;;;1.25;;
49842;SDS011;55559;48.898;9.184;2023-05-15T08:57:36;4.97;;;0.90;;
49842;SDS011;55559;48.898;9.184;2023-05-15T09:00:04;4.15;;;0.70;;
49842;SDS011;55559;48.898;9.184;2023-05-15T09:02:35;2.55;;;1.00;;
49842;SDS011;55559;48.898;9.184;2023-05-15T09:05:03;15.13;;;0.90;;
49842;SDS011;55559;48.898;9.184;2023-05-15T09:07:32;59.40;;;5.40;;
49842;SDS011;55559;48.898;9.184;2023-05-15T09:10:00;5.10;;;0.73;;
49842;SDS011;55559;48.898;9.184;2023-05-15T09:12:30;2.97;;;1.02;;
49842;SDS011;55559;48.898;9.184;2023-05-15T09:15:08;1.70;;;0.80;;
49842;SDS011;55559;48.898;9.184;2023-05-15T09:17:39;1.45;;;0.90;;
49842;SDS011;55559;48.898;9.184;2023-05-15T09:20:11;11.50;;;1.45;;
49842;SDS011;55559;48.898;9.184;2023-05-15T09:22:51;1.48;;;0.60;;
49842;SDS011;55559;48.898;9.184;2023-05-15T09:25:31;11.00;;;1.67;;
49842;SDS011;55559;48.898;9.184;2023-05-15T09:28:00;1.52;;;0.80;;
49842;SDS011;55559;48.898;9.184;2023-05-15T09:30:27;3.63;;;0.80;;
49842;SDS011;55559;48.898;9.184;2023-05-15T09:32:57;1.30;;;0.60;;
49842;SDS011;55559;48.898;9.184;2023-05-15T09:35:31;2.42;;;0.80;;
49842;SDS011;55559;48.898;9.184;2023-05-15T09:37:59;1.10;;;0.60;;
49842;SDS011;55559;48.898;9.184;2023-05-15T09:40:28;3.63;;;1.02;;
49842;SDS011;55559;48.898;9.184;2023-05-15T09:42:56;1.20;;;0.70;;
49842;SDS011;55559;48.898;9.184;2023-05-15T09:45:24;1.17;;;0.75;;
49842;SDS011;55559;48.898;9.184;2023-05-15T09:47:54;19.48;;;2.35;;
49842;SDS011;55559;48.898;9.184;2023-05-15T09:50:31;2.45;;;0.90;;
49842;SDS011;55559;48.898;9.184;2023-05-15T09:53:00;1.77;;;0.70;;
49842;SDS011;55559;48.898;9.184;2023-05-15T09:55:30;4.40;;;0.80;;
49842;SDS011;55559;48.898;9.184;2023-05-15T09:58:03;2.45;;;0.90;;
49842;SDS011;55559;48.898;9.184;2023-05-15T10:00:33;3.58;;;0.70;;
49842;SDS011;55559;48.898;9.184;2023-05-15T10:03:02;1.90;;;0.90;;
49842;SDS011;55559;48.898;9.184;2023-05-15T10:05:31;4.15;;;1.00;;
49842;SDS011;55559;48.898;9.184;2023-05-15T10:07:59;11.25;;;1.33;;
49842;SDS011;55559;48.898;9.184;2023-05-15T10:10:27;5.18;;;0.70;;
49842;SDS011;55559;48.898;9.184;2023-05-15T10:12:55;3.30;;;1.00;;
49842;SDS011;55559;48.898;9.184;2023-05-15T10:15:26;3.90;;;0.80;;
49842;SDS011;55559;48.898;9.184;2023-05-15T10:17:54;2.05;;;0.63;;
49842;SDS011;55559;48.898;9.184;2023-05-15T10:20:24;1.58;;;0.60;;
49842;SDS011;55559;48.898;9.184;2023-05-15T10:22:54;3.05;;;0.50;;
49842;SDS011;55559;48.898;9.184;2023-05-15T10:25:25;1.60;;;0.50;;
49842;SDS011;55559;48.898;9.184;2023-05-15T10:27:58;2.00;;;0.52;;
49842;SDS011;55559;48.898;9.184;2023-05-15T10:30:27;2.58;;;0.50;;
49842;SDS011;55559;48.898;9.184;2023-05-15T10:32:54;3.28;;;0.63;;
49842;SDS011;55559;48.898;9.184;2023-05-15T10:35:24;3.85;;;0.60;;
49842;SDS011;55559;48.898;9.184;2023-05-15T10:37:53;3.15;;;0.60;;
49842;SDS011;55559;48.898;9.184;2023-05-15T10:40:22;0.88;;;0.47;;
49842;SDS011;55559;48.898;9.184;2023-05-15T10:42:50;2.03;;;0.63;;
49842;SDS011;55559;48.898;9.184;2023-05-15T10:45:20;1.17;;;0.50;;
49842;SDS011;55559;48.898;9.184;2023-05-15T10:47:48;1.08;;;0.57;;
49842;SDS011;55559;48.898;9.184;2023-05-15T10:50:17;3.42;;;0.50;;
49842;SDS011;55559;48.898;9.184;2023-05-15T10:52:46;4.38;;;0.73;;
49842;SDS011;55559;48.898;9.184;2023-05-15T10:55:17;4.10;;;0.65;;
49842;SDS011;55559;48.898;9.184;2023-05-15T10:57:45;2.45;;;0.50;;
49842;SDS011;55559;48.898;9.184;2023-05-15T11:00:25;1.40;;;0.40;;
49842;SDS011;55559;48.898;9.184;2023-05-15T11:02:55;1.25;;;0.50;;
49842;SDS011;55559;48.898;9.184;2023-05-15T11:05:25;1.10;;;0.60;;
49842;SDS011;55559;48.898;9.184;2023-05-15T11:10:52;40.92;;;2.15;;
49842;SDS011;55559;48.898;9.184;2023-05-15T11:13:20;4.10;;;0.50;;
49842;SDS011;55559;48.898;9.184;2023-05-15T11:15:48;1.85;;;0.63;;
49842;SDS011;55559;48.898;9.184;2023-05-15T11:18:15;3.22;;;0.75;;
49842;SDS011;55559;48.898;9.184;2023-05-15T11:23:40;1.67;;;0.50;;
49842;SDS011;55559;48.898;9.184;2023-05-15T11:26:08;25.73;;;2.00;;
49842;SDS011;55559;48.898;9.184;2023-05-15T11:28:41;1.75;;;0.55;;
49842;SDS011;55559;48.898;9.184;2023-05-15T11:31:10;2.75;;;0.60;;
49842;SDS011;55559;48.898;9.184;2023-05-15T11:33:37;11.30;;;0.60;;
49842;SDS011;55559;48.898;9.184;2023-05-15T11:36:07;2.15;;;0.50;;
49842;SDS011;55559;48.898;9.184;2023-05-15T11:38:41;4.30;;;0.60;;
49842;SDS011;55559;48.898;9.184;2023-05-15T11:41:16;1.45;;;0.50;;
49842;SDS011;55559;48.898;9.184;2023-05-15T11:43:46;1.05;;;0.55;;
49842;SDS011;55559;48.898;9.184;2023-05-15T11:46:14;2.80;;;0.50;;
49842;SDS011;55559;48.898;9.184;2023-05-15T11:48:43;2.40;;;0.50;;
49842;SDS011;55559;48.898;9.184;2023-05-15T11:51:16;9.82;;;0.70;;
49842;SDS011;55559;48.898;9.184;2023-05-15T11:53:47;2.83;;;0.47;;
49842;SDS011;55559;48.898;9.184;2023-05-15T11:56:16;2.25;;;0.50;;
49842;SDS011;55559;48.898;9.184;2023-05-15T11:58:46;5.78;;;0.50;;
49842;SDS011;55559;48.898;9.184;2023-05-15T12:01:15;3.17;;;0.50;;
49842;SDS011;55559;48.898;9.184;2023-05-15T12:03:43;3.78;;;0.43;;
49842;SDS011;55559;48.898;9.184;2023-05-15T12:06:13;2.08;;;0.70;;
49842;SDS011;55559;48.898;9.184;2023-05-15T12:08:40;1.48;;;0.45;;
49842;SDS011;55559;48.898;9.184;2023-05-15T12:11:09;2.35;;;0.50;;
49842;SDS011;55559;48.898;9.184;2023-05-15T12:13:38;3.65;;;0.70;;
49842;SDS011;55559;48.898;9.184;2023-05-15T12:16:05;4.28;;;0.50;;
49842;SDS011;55559;48.898;9.184;2023-05-15T12:18:33;3.78;;;0.47;;
49842;SDS011;55559;48.898;9.184;2023-05-15T12:21:00;1.38;;;0.50;;
49842;SDS011;55559;48.898;9.184;2023-05-15T12:23:29;3.55;;;0.45;;
49842;SDS011;55559;48.898;9.184;2023-05-15T12:25:58;1.50;;;0.50;;
49842;SDS011;55559;48.898;9.184;2023-05-15T12:28:30;2.20;;;0.50;;
49842;SDS011;55559;48.898;9.184;2023-05-15T12:31:00;3.27;;;0.50;;
49842;SDS011;55559;48.898;9.184;2023-05-15T12:33:28;1.80;;;0.50;;
49842;SDS011;55559;48.898;9.184;2023-05-15T12:35:56;3.47;;;0.70;;
49842;SDS011;55559;48.898;9.184;2023-05-15T12:38:23;1.48;;;0.40;;
49842;SDS011;55559;48.898;9.184;2023-05-15T12:40:51;3.22;;;0.60;;
49842;SDS011;55559;48.898;9.184;2023-05-15T12:43:19;1.23;;;0.43;;
49842;SDS011;55559;48.898;9.184;2023-05-15T12:45:55;2.47;;;0.50;;
49842;SDS011;55559;48.898;9.184;2023-05-15T12:48:27;0.90;;;0.50;;
49842;SDS011;55559;48.898;9.184;2023-05-15T12:50:55;2.38;;;0.50;;
49842;SDS011;55559;48.898;9.184;2023-05-15T12:53:31;2.63;;;0.60;;
49842;SDS011;55559;48.898;9.184;2023-05-15T12:55:59;1.95;;;0.50;;
49842;SDS011;55559;48.898;9.184;2023-05-15T12:58:27;1.70;;;0.50;;
49842;SDS011;55559;48.898;9.184;2023-05-15T13:00:56;1.48;;;0.40;;
49842;SDS011;55559;48.898;9.184;2023-05-15T13:03:24;4.72;;;0.60;;
49842;SDS011;55559;48.898;9.184;2023-05-15T13:05:52;4.63;;;0.60;;
49842;SDS011;55559;48.898;9.184;2023-05-15T13:08:20;6.35;;;0.57;;
49842;SDS011;55559;48.898;9.184;2023-05-15T13:10:54;1.10;;;0.60;;
49842;SDS011;55559;48.898;9.184;2023-05-15T13:13:22;6.55;;;0.70;;
49842;SDS011;55559;48.898;9.184;2023-05-15T13:15:50;4.85;;;0.80;;
49842;SDS011;55559;48.898;9.184;2023-05-15T13:18:21;5.78;;;0.60;;
49842;SDS011;55559;48.898;9.184;2023-05-15T13:20:49;3.15;;;0.50;;
49842;SDS011;55559;48.898;9.184;2023-05-15T13:23:17;1.75;;;0.75;;
49842;SDS011;55559;48.898;9.184;2023-05-15T13:25:46;2.97;;;0.70;;
49842;SDS011;55559;48.898;9.184;2023-05-15T13:28:14;4.50;;;0.70;;
49842;SDS011;55559;48.898;9.184;2023-05-15T13:30:41;1.63;;;0.57;;
49842;SDS011;55559;48.898;9.184;2023-05-15T13:33:09;2.78;;;0.90;;
49842;SDS011;55559;48.898;9.184;2023-05-15T13:35:41;3.67;;;0.60;;
49842;SDS011;55559;48.898;9.184;2023-05-15T13:38:08;2.88;;;0.70;;
49842;SDS011;55559;48.898;9.184;2023-05-15T13:40:37;6.57;;;0.60;;
49842;SDS011;55559;48.898;9.184;2023-05-15T13:43:04;2.13;;;0.50;;
49842;SDS011;55559;48.898;9.184;2023-05-15T13:45:31;4.72;;;0.70;;
49842;SDS011;55559;48.898;9.184;2023-05-15T13:47:59;8.38;;;0.70;;
49842;SDS011;55559;48.898;9.184;2023-05-15T13:50:26;1.35;;;0.70;;
49842;SDS011;55559;48.898;9.184;2023-05-15T13:52:55;4.47;;;0.60;;
49842;SDS011;55559;48.898;9.184;2023-05-15T13:55:23;2.20;;;0.50;;
49842;SDS011;55559;48.898;9.184;2023-05-15T13:57:51;2.55;;;0.70;;
49842;SDS011;55559;48.898;9.184;2023-05-15T14:00:19;4.65;;;0.60;;
49842;SDS011;55559;48.898;9.184;2023-05-15T14:02:47;4.47;;;0.73;;
49842;SDS011;55559;48.898;9.184;2023-05-15T14:05:15;9.07;;;0.50;;
49842;SDS011;55559;48.898;9.184;2023-05-15T14:07:43;1.38;;;0.60;;
49842;SDS011;55559;48.898;9.184;2023-05-15T14:10:12;1.63;;;0.68;;
49842;SDS011;55559;48.898;9.184;2023-05-15T14:12:39;1.77;;;0.60;;
49842;SDS011;55559;48.898;9.184;2023-05-15T14:15:08;9.57;;;0.65;;
49842;SDS011;55559;48.898;9.184;2023-05-15T14:17:36;2.65;;;0.70;;
49842;SDS011;55559;48.898;9.184;2023-05-15T14:20:04;1.38;;;0.50;;
49842;SDS011;55559;48.898;9.184;2023-05-15T14:22:34;2.33;;;0.85;;
49842;SDS011;55559;48.898;9.184;2023-05-15T14:25:01;1.35;;;0.60;;
49842;SDS011;55559;48.898;9.184;2023-05-15T14:27:31;3.17;;;0.52;;
49842;SDS011;55559;48.898;9.184;2023-05-15T14:29:59;2.80;;;0.70;;
49842;SDS011;55559;48.898;9.184;2023-05-15T14:32:26;3.55;;;0.70;;
49842;SDS011;55559;48.898;9.184;2023-05-15T14:34:54;5.68;;;0.60;;
49842;SDS011;55559;48.898;9.184;2023-05-15T14:37:24;3.60;;;0.73;;
49842;SDS011;55559;48.898;9.184;2023-05-15T14:39:52;2.85;;;0.70;;
49842;SDS011;55559;48.898;9.184;2023-05-15T14:42:20;4.53;;;0.60;;
49842;SDS011;55559;48.898;9.184;2023-05-15T14:44:49;2.38;;;0.90;;
49842;SDS011;55559;48.898;9.184;2023-05-15T14:47:16;4.90;;;1.10;;
49842;SDS011;55559;48.898;9.184;2023-05-15T14:49:44;2.05;;;0.60;;
49842;SDS011;55559;48.898;9.184;2023-05-15T14:52:12;5.93;;;0.50;;
49842;SDS011;55559;48.898;9.184;2023-05-15T14:54:39;1.88;;;0.40;;
49842;SDS011;55559;48.898;9.184;2023-05-15T14:57:06;1.50;;;0.50;;
49842;SDS011;55559;48.898;9.184;2023-05-15T14:59:34;3.50;;;0.50;;
49842;SDS011;55559;48.898;9.184;2023-05-15T15:02:03;3.63;;;0.60;;
49842;SDS011;55559;48.898;9.184;2023-05-15T15:04:31;1.40;;;0.70;;
49842;SDS011;55559;48.898;9.184;2023-05-15T15:07:02;3.33;;;0.82;;
49842;SDS011;55559;48.898;9.184;2023-05-15T15:09:30;5.15;;;1.77;;